createdAt,value
2022-12-13T00:02:14.437Z,-3.04
2022-12-13T00:07:16.141Z,-3.05
2022-12-13T00:12:19.059Z,-3.07
2022-12-13T00:17:20.840Z,-3.04
2022-12-13T00:22:22.495Z,-2.97
2022-12-13T00:27:24.228Z,-2.96
2022-12-13T00:32:25.925Z,-2.98
2022-12-13T00:37:27.591Z,-3.04
2022-12-13T00:42:29.240Z,-3.04
2022-12-13T00:47:30.917Z,-3.07
2022-12-13T00:52:34.661Z,-3.05
2022-12-13T00:57:36.425Z,-2.96
2022-12-13T01:02:38.198Z,-3.01
2022-12-13T01:07:44.499Z,-3.06
2022-12-13T01:12:47.259Z,-3.01
2022-12-13T01:17:49.521Z,-3.12
2022-12-13T01:22:51.184Z,-3.12
2022-12-13T01:27:52.865Z,-3.18
2022-12-13T01:32:54.644Z,-3.09
2022-12-13T01:37:56.300Z,-3.23
2022-12-13T01:43:00.016Z,-3.13
2022-12-13T01:48:07.603Z,-3.05
2022-12-13T01:53:14.919Z,-3.24
2022-12-13T01:58:17.517Z,-3.40
2022-12-13T02:03:22.150Z,-3.45
2022-12-13T02:08:25.480Z,-3.46
2022-12-13T02:13:27.243Z,-3.37
2022-12-13T02:18:50.491Z,-3.43
2022-12-13T02:24:13.844Z,-3.59
2022-12-13T02:30:03.106Z,-3.56
2022-12-13T02:35:29.556Z,-3.74
2022-12-13T02:40:39.679Z,-3.82
2022-12-13T02:45:46.712Z,-3.93
2022-12-13T02:50:49.950Z,-4.02
2022-12-13T02:55:51.688Z,-4.12
2022-12-13T03:01:27.970Z,-4.29
2022-12-13T03:06:34.749Z,-4.42
2022-12-13T03:12:32.412Z,-4.49
2022-12-13T03:17:44.145Z,-4.72
2022-12-13T03:22:45.859Z,-4.78
2022-12-13T03:27:47.534Z,-4.88
2022-12-13T03:32:49.206Z,-5.05
2022-12-13T03:37:51.350Z,-5.22
2022-12-13T03:42:53.016Z,-5.25
2022-12-13T03:47:54.673Z,-5.35
2022-12-13T03:53:04.008Z,-5.63
2022-12-13T03:58:07.964Z,-5.76
2022-12-13T04:03:09.983Z,-5.91
2022-12-13T04:08:21.551Z,-6.05
2022-12-13T04:13:35.108Z,-6.25
2022-12-13T04:18:36.798Z,-6.45
2022-12-13T04:23:38.504Z,-6.51
2022-12-13T04:28:40.185Z,-6.59
2022-12-13T04:33:41.845Z,-6.87
2022-12-13T04:38:43.530Z,-6.97
2022-12-13T04:43:50.193Z,-6.86
2022-12-13T04:48:51.871Z,-6.99
2022-12-13T04:53:53.580Z,-7.20
2022-12-13T04:58:55.293Z,-7.43
2022-12-13T05:03:57.064Z,-7.56
2022-12-13T05:09:00.627Z,-7.50
2022-12-13T05:14:02.842Z,-7.67
2022-12-13T05:19:04.671Z,-7.58
2022-12-13T05:24:06.936Z,-7.65
2022-12-13T05:29:08.649Z,-7.91
2022-12-13T05:34:10.328Z,-7.81
2022-12-13T05:39:29.401Z,-7.96
2022-12-13T05:44:32.743Z,-8.11
2022-12-13T05:49:34.508Z,-8.15
2022-12-13T05:54:36.222Z,-8.21
2022-12-13T05:59:37.880Z,-8.34
2022-12-13T06:04:39.583Z,-8.38
2022-12-13T06:09:41.559Z,-8.51
2022-12-13T06:14:43.208Z,-8.52
2022-12-13T06:19:46.477Z,-8.73
2022-12-13T06:24:48.162Z,-8.60
2022-12-13T06:29:49.953Z,-8.93
2022-12-13T06:34:51.617Z,-8.86
2022-12-13T06:39:53.314Z,-8.93
2022-12-13T06:44:56.246Z,-8.98
2022-12-13T06:49:58.121Z,-8.97
2022-12-13T06:55:07.790Z,-8.90
2022-12-13T07:00:10.343Z,-8.92
2022-12-13T07:05:12.077Z,-8.81
2022-12-13T07:10:22.485Z,-8.90
2022-12-13T07:15:24.821Z,-8.92
2022-12-13T07:20:26.571Z,-9.10
2022-12-13T07:25:29.714Z,-9.01
2022-12-13T07:30:34.551Z,-8.88
2022-12-13T07:35:44.011Z,-9.10
2022-12-13T07:40:45.756Z,-8.96
2022-12-13T07:45:47.449Z,-9.10
2022-12-13T07:50:54.554Z,-8.94
2022-12-13T07:55:56.774Z,-9.27
2022-12-13T08:01:03.649Z,-8.71
2022-12-13T08:06:08.116Z,-8.71
2022-12-13T08:11:12.766Z,-9.02
2022-12-13T08:16:27.824Z,-9.09
2022-12-13T08:21:54.490Z,-8.72
2022-12-13T08:27:02.444Z,-8.62
2022-12-13T08:32:09.006Z,-8.62
2022-12-13T08:37:10.667Z,-8.05
2022-12-13T08:42:18.176Z,-7.59
2022-12-13T08:47:25.508Z,-7.42
2022-12-13T08:52:28.185Z,-7.23
2022-12-13T08:57:29.899Z,-7.28
2022-12-13T09:02:31.620Z,-7.23
2022-12-13T09:07:41.227Z,-7.86
2022-12-13T09:12:43.206Z,-7.54
2022-12-13T09:17:44.924Z,-7.68
2022-12-13T09:23:01.729Z,-7.37
2022-12-13T09:28:06.642Z,-7.30
2022-12-13T09:33:18.165Z,-7.04
2022-12-13T09:38:30.065Z,-7.01
2022-12-13T09:43:42.990Z,-7.01
2022-12-13T09:48:48.359Z,-6.65
2022-12-13T09:53:52.776Z,-6.64
2022-12-13T09:58:56.730Z,-6.46
2022-12-13T10:04:00.075Z,-6.42
2022-12-13T10:09:01.802Z,-6.85
2022-12-13T10:14:12.844Z,-5.78
2022-12-13T10:19:29.168Z,0.14
2022-12-13T10:25:00.204Z,6.21
2022-12-13T10:30:10.980Z,8.27
2022-12-13T10:35:20.844Z,8.04
2022-12-13T10:40:32.413Z,10.61
2022-12-13T10:45:35.310Z,10.96
2022-12-13T10:50:37.294Z,10.15
2022-12-13T10:55:39.104Z,12.98
2022-12-13T11:00:47.432Z,13.58
2022-12-13T11:06:03.252Z,13.40
2022-12-13T11:11:07.284Z,13.60
2022-12-13T11:16:26.844Z,11.91
2022-12-13T11:21:34.029Z,12.80
2022-12-13T11:26:39.420Z,12.66
2022-12-13T11:32:08.855Z,11.33
2022-12-13T11:37:13.327Z,9.26
2022-12-13T11:42:18.163Z,12.51
2022-12-13T11:47:26.935Z,12.75
2022-12-13T11:52:42.242Z,13.44
2022-12-13T11:57:55.483Z,10.95
2022-12-13T12:03:06.621Z,10.03
2022-12-13T12:08:40.617Z,10.54
2022-12-13T12:14:09.451Z,12.77
2022-12-13T12:19:14.717Z,10.96
2022-12-13T12:24:29.723Z,11.83
2022-12-13T12:29:46.583Z,11.42
2022-12-13T12:35:03.024Z,9.60
2022-12-13T12:41:15.798Z,9.06
2022-12-13T12:46:20.126Z,8.30
2022-12-13T12:51:28.808Z,9.87
2022-12-13T12:56:43.869Z,10.27
2022-12-13T13:02:07.312Z,9.78
2022-12-13T13:07:23.092Z,10.07
2022-12-13T13:12:29.034Z,8.32
2022-12-13T13:17:32.176Z,7.02
2022-12-13T13:22:44.322Z,6.14
2022-12-13T13:27:48.643Z,6.47
2022-12-13T13:32:53.307Z,3.20
2022-12-13T13:38:05.496Z,3.39
2022-12-13T13:43:10.201Z,1.77
2022-12-13T13:48:42.987Z,1.77
2022-12-13T13:53:44.594Z,0.88
2022-12-13T13:58:58.156Z,-1.06
2022-12-13T14:04:18.293Z,-1.16
2022-12-13T14:09:42.104Z,-0.98
2022-12-13T14:15:01.299Z,-0.53
2022-12-13T14:20:18.221Z,-0.69
2022-12-13T14:25:52.330Z,-1.06
2022-12-13T14:30:57.586Z,-3.21
2022-12-13T14:36:01.795Z,-3.53
2022-12-13T14:41:03.627Z,-3.43
2022-12-13T14:46:07.253Z,-3.87
2022-12-13T14:51:30.697Z,-4.24
2022-12-13T14:56:32.901Z,-4.54
2022-12-13T15:01:36.917Z,-4.70
2022-12-13T15:06:39.574Z,-4.75
2022-12-13T15:11:44.110Z,-4.88
2022-12-13T15:16:50.584Z,-4.99
2022-12-13T15:22:01.566Z,-5.15
2022-12-13T15:27:08.226Z,-5.17
2022-12-13T15:32:19.149Z,-5.35
2022-12-13T15:37:28.220Z,-5.59
2022-12-13T15:42:38.511Z,-5.73
2022-12-13T15:47:45.559Z,-6.02
2022-12-13T15:52:47.862Z,-5.89
2022-12-13T15:57:55.246Z,-6.19
2022-12-13T16:03:11.560Z,-6.36
2022-12-13T16:08:31.310Z,-6.49
2022-12-13T16:13:37.944Z,-6.38
2022-12-13T16:18:46.817Z,-6.75
2022-12-13T16:23:49.263Z,-6.62
2022-12-13T16:28:51.241Z,-7.22
2022-12-13T16:33:53.907Z,-7.01
2022-12-13T16:38:55.560Z,-6.91
2022-12-13T16:44:00.742Z,-7.22
2022-12-13T16:49:08.953Z,-7.45
2022-12-13T16:54:10.614Z,-7.68
2022-12-13T16:59:20.680Z,-7.55
2022-12-13T17:04:24.483Z,-7.55
2022-12-13T17:09:26.199Z,-7.63
2022-12-13T17:14:27.878Z,-8.15
2022-12-13T17:19:29.567Z,-8.01
2022-12-13T17:24:31.336Z,-7.80
2022-12-13T17:29:33.897Z,-8.06
2022-12-13T17:34:35.614Z,-8.37
2022-12-13T17:39:37.652Z,-8.25
2022-12-13T17:44:39.745Z,-8.15
2022-12-13T17:49:41.444Z,-8.27
2022-12-13T17:54:43.201Z,-8.36
2022-12-13T17:59:44.912Z,-8.30
2022-12-13T18:04:46.624Z,-8.40
2022-12-13T18:09:48.380Z,-8.36
2022-12-13T18:14:51.922Z,-8.51
2022-12-13T18:19:53.621Z,-8.63
2022-12-13T18:24:55.273Z,-8.82
2022-12-13T18:29:56.939Z,-8.94
2022-12-13T18:34:58.612Z,-8.86
2022-12-13T18:40:00.268Z,-8.68
2022-12-13T18:45:02.290Z,-9.28
2022-12-13T18:50:04.282Z,-9.21
2022-12-13T18:55:06.656Z,-8.95
2022-12-13T19:00:09.123Z,-9.32
2022-12-13T19:05:10.846Z,-9.38
2022-12-13T19:10:12.519Z,-9.58
2022-12-13T19:15:15.315Z,-9.30
2022-12-13T19:20:18.051Z,-9.33
2022-12-13T19:25:20.809Z,-9.52
2022-12-13T19:30:23.816Z,-9.62
2022-12-13T19:35:26.063Z,-9.73
2022-12-13T19:40:27.804Z,-9.64
2022-12-13T19:45:29.510Z,-9.86
2022-12-13T19:50:31.179Z,-9.60
2022-12-13T19:55:35.689Z,-9.73
2022-12-13T20:00:37.428Z,-9.83
2022-12-13T20:05:45.337Z,-9.98
2022-12-13T20:10:47.724Z,-9.91
2022-12-13T20:15:49.657Z,-9.88
2022-12-13T20:21:10.991Z,-9.75
2022-12-13T20:26:15.176Z,-10.01
2022-12-13T20:31:38.114Z,-10.08
2022-12-13T20:36:41.198Z,-10.14
2022-12-13T20:41:42.902Z,-10.22
2022-12-13T20:46:44.667Z,-10.27
2022-12-13T20:51:46.344Z,-10.09
2022-12-13T20:56:48.030Z,-9.97
2022-12-13T21:01:49.847Z,-10.34
2022-12-13T21:06:51.548Z,-10.41
2022-12-13T21:11:53.280Z,-10.21
2022-12-13T21:16:57.435Z,-10.06
2022-12-13T21:21:59.342Z,-10.34
2022-12-13T21:27:01.183Z,-10.57
2022-12-13T21:32:03.094Z,-10.31
2022-12-13T21:37:05.812Z,-10.29
2022-12-13T21:42:07.475Z,-10.15
2022-12-13T21:47:12.243Z,-10.16
2022-12-13T21:52:14.542Z,-10.22
2022-12-13T21:57:34.589Z,-10.55
2022-12-13T22:02:36.374Z,-10.50
2022-12-13T22:07:38.537Z,-10.39
2022-12-13T22:12:41.386Z,-10.46
2022-12-13T22:17:43.288Z,-10.53
2022-12-13T22:22:45.416Z,-10.50
2022-12-13T22:27:47.116Z,-10.43
2022-12-13T22:32:48.792Z,-10.28
2022-12-13T22:37:50.443Z,-10.39
2022-12-13T22:42:52.109Z,-10.29
2022-12-13T22:47:54.492Z,-10.11
2022-12-13T22:52:56.188Z,-10.08
2022-12-13T22:57:57.856Z,-9.94
2022-12-13T23:02:59.558Z,-9.87
2022-12-13T23:08:01.301Z,-9.92
2022-12-13T23:13:03.020Z,-10.10
2022-12-13T23:18:04.733Z,-9.69
2022-12-13T23:23:06.424Z,-9.75
2022-12-13T23:28:08.097Z,-9.62
2022-12-13T23:33:09.788Z,-9.60
2022-12-13T23:38:11.465Z,-9.63
2022-12-13T23:43:13.122Z,-9.70
2022-12-13T23:48:14.774Z,-9.67
2022-12-13T23:53:16.466Z,-9.69
2022-12-13T23:58:22.411Z,-9.50
